createdAt,value
2023-03-21T00:02:25.802Z,6.80
2023-03-21T00:05:15.812Z,7.37
2023-03-21T00:08:02.690Z,6.83
2023-03-21T00:10:55.065Z,9.03
2023-03-21T00:13:43.515Z,8.87
2023-03-21T00:16:32.291Z,7.70
2023-03-21T00:19:24.926Z,6.47
2023-03-21T00:22:10.023Z,6.37
2023-03-21T00:24:55.493Z,6.87
2023-03-21T00:28:01.195Z,6.40
2023-03-21T00:30:46.359Z,6.43
2023-03-21T00:33:31.818Z,7.30
2023-03-21T00:36:17.506Z,6.87
2023-03-21T00:39:04.224Z,6.07
2023-03-21T00:41:51.747Z,5.80
2023-03-21T00:44:37.028Z,5.70
2023-03-21T00:47:24.127Z,8.00
2023-03-21T00:50:11.982Z,6.40
2023-03-21T00:52:57.480Z,7.40
2023-03-21T00:55:43.256Z,5.77
2023-03-21T00:58:28.479Z,8.00
2023-03-21T01:01:13.843Z,5.87
2023-03-21T01:04:07.640Z,5.47
2023-03-21T01:06:54.565Z,5.53
2023-03-21T01:09:40.187Z,8.90
2023-03-21T01:12:25.524Z,7.40
2023-03-21T01:15:11.292Z,6.07
2023-03-21T01:17:56.379Z,5.30
2023-03-21T01:20:42.852Z,6.63
2023-03-21T01:23:29.436Z,6.93
2023-03-21T01:26:15.388Z,5.23
2023-03-21T01:29:02.406Z,4.93
2023-03-21T01:31:47.965Z,5.17
2023-03-21T01:34:33.495Z,6.13
2023-03-21T01:37:19.964Z,5.30
2023-03-21T01:40:12.739Z,4.67
2023-03-21T01:42:59.295Z,5.33
2023-03-21T01:46:08.957Z,5.63
2023-03-21T01:49:18.346Z,5.87
2023-03-21T01:52:15.339Z,5.13
2023-03-21T01:55:11.768Z,5.43
2023-03-21T01:58:06.696Z,6.70
2023-03-21T02:01:12.922Z,5.00
2023-03-21T02:04:05.012Z,5.30
2023-03-21T02:07:17.765Z,6.30
2023-03-21T02:10:13.964Z,5.93
2023-03-21T02:13:09.542Z,5.37
2023-03-21T02:16:13.140Z,4.23
2023-03-21T02:19:10.788Z,5.75
2023-03-21T02:22:12.144Z,4.70
2023-03-21T02:25:31.726Z,6.27
2023-03-21T02:28:27.954Z,4.37
2023-03-21T02:31:36.376Z,4.57
2023-03-21T02:34:27.825Z,4.13
2023-03-21T02:37:38.299Z,6.40
2023-03-21T02:40:30.838Z,5.00
2023-03-21T02:43:38.423Z,4.40
2023-03-21T02:46:45.478Z,4.13
2023-03-21T02:49:49.624Z,3.90
2023-03-21T02:52:39.537Z,5.30
2023-03-21T02:55:32.085Z,4.97
2023-03-21T02:58:23.625Z,5.68
2023-03-21T03:01:13.879Z,3.60
2023-03-21T03:04:22.139Z,3.90
2023-03-21T03:07:11.378Z,5.43
2023-03-21T03:10:08.001Z,5.10
2023-03-21T03:13:06.637Z,5.10
2023-03-21T03:16:21.875Z,5.70
2023-03-21T03:19:16.015Z,4.17
2023-03-21T03:22:10.722Z,3.47
2023-03-21T03:25:16.322Z,3.63
2023-03-21T03:28:11.550Z,5.80
2023-03-21T03:31:08.652Z,6.63
2023-03-21T03:34:12.810Z,9.77
2023-03-21T03:37:04.576Z,12.53
2023-03-21T03:40:02.139Z,11.10
2023-03-21T03:42:54.157Z,10.53
2023-03-21T03:45:56.777Z,9.00
2023-03-21T03:49:17.149Z,12.60
2023-03-21T03:52:13.944Z,9.43
2023-03-21T03:55:04.052Z,11.90
2023-03-21T03:57:55.602Z,9.07
2023-03-21T04:00:41.887Z,11.27
2023-03-21T04:03:28.205Z,8.37
2023-03-21T04:06:14.518Z,10.93
2023-03-21T04:09:03.419Z,8.27
2023-03-21T04:11:51.225Z,6.97
2023-03-21T04:14:44.408Z,8.83
2023-03-21T04:20:26.719Z,9.67
2023-03-21T04:23:20.516Z,8.70
2023-03-21T04:26:07.803Z,8.50
2023-03-21T04:28:57.110Z,10.23
2023-03-21T04:31:42.283Z,9.53
2023-03-21T04:34:30.809Z,8.43
2023-03-21T04:37:23.443Z,7.57
2023-03-21T04:40:11.185Z,9.93
2023-03-21T04:42:56.961Z,8.03
2023-03-21T04:45:42.106Z,8.07
2023-03-21T04:48:27.938Z,6.40
2023-03-21T04:51:16.104Z,5.33
2023-03-21T04:54:01.651Z,6.47
2023-03-21T04:56:46.950Z,7.20
2023-03-21T04:59:32.310Z,10.93
2023-03-21T05:02:18.214Z,5.17
2023-03-21T05:05:04.480Z,6.13
2023-03-21T05:07:49.748Z,5.73
2023-03-21T05:10:35.201Z,7.37
2023-03-21T05:13:20.846Z,5.60
2023-03-21T05:16:08.348Z,7.13
2023-03-21T05:18:55.586Z,8.73
2023-03-21T05:21:42.058Z,6.07
2023-03-21T05:24:50.198Z,6.23
2023-03-21T05:27:54.592Z,9.57
2023-03-21T05:30:46.303Z,7.63
2023-03-21T05:33:32.655Z,4.87
2023-03-21T05:36:19.407Z,5.70
2023-03-21T05:39:06.152Z,5.23
2023-03-21T05:41:54.709Z,5.80
2023-03-21T05:44:42.878Z,6.47
2023-03-21T05:47:29.987Z,5.23
2023-03-21T05:50:17.816Z,4.13
2023-03-21T05:55:56.492Z,4.37
2023-03-21T05:58:58.548Z,5.87
2023-03-21T06:01:44.589Z,4.87
2023-03-21T06:04:33.880Z,4.87
2023-03-21T06:07:19.328Z,6.77
2023-03-21T06:10:04.796Z,11.20
2023-03-21T06:12:50.592Z,8.53
2023-03-21T06:16:02.235Z,9.10
2023-03-21T06:18:47.875Z,10.67
2023-03-21T06:21:48.574Z,6.97
2023-03-21T06:24:34.248Z,12.87
2023-03-21T06:27:19.993Z,7.30
2023-03-21T06:30:12.543Z,7.70
2023-03-21T06:33:25.454Z,9.17
2023-03-21T06:36:10.864Z,10.27
2023-03-21T06:38:57.078Z,10.50
2023-03-21T06:41:44.012Z,10.10
2023-03-21T06:44:29.327Z,7.77
2023-03-21T06:47:21.616Z,10.30
2023-03-21T06:50:09.445Z,8.07
2023-03-21T06:53:00.326Z,12.03
2023-03-21T06:55:50.793Z,8.50
2023-03-21T06:58:36.632Z,9.17
2023-03-21T07:01:22.630Z,9.53
2023-03-21T07:04:18.531Z,8.50
2023-03-21T07:07:04.196Z,10.27
2023-03-21T07:09:49.648Z,7.60
2023-03-21T07:12:36.050Z,7.90
2023-03-21T07:15:47.822Z,7.67
2023-03-21T07:18:33.850Z,9.97
2023-03-21T07:21:19.165Z,8.87
2023-03-21T07:24:04.391Z,5.93
2023-03-21T07:26:49.656Z,7.33
2023-03-21T07:29:34.893Z,7.67
2023-03-21T07:32:20.510Z,5.87
2023-03-21T07:35:08.768Z,7.53
2023-03-21T07:37:54.062Z,7.47
2023-03-21T07:40:39.588Z,8.00
2023-03-21T07:43:25.181Z,6.53
2023-03-21T07:46:11.490Z,7.73
2023-03-21T07:48:56.780Z,7.03
2023-03-21T07:51:42.448Z,5.57
2023-03-21T07:54:28.769Z,6.03
2023-03-21T07:57:14.329Z,5.33
2023-03-21T07:59:59.549Z,5.00
2023-03-21T08:02:44.944Z,6.87
2023-03-21T08:05:34.685Z,6.80
2023-03-21T08:08:19.997Z,6.03
2023-03-21T08:11:06.313Z,5.43
2023-03-21T08:13:51.700Z,7.70
2023-03-21T08:16:37.194Z,4.83
2023-03-21T08:19:22.534Z,6.03
2023-03-21T08:22:07.612Z,6.17
2023-03-21T08:24:52.923Z,6.50
2023-03-21T08:27:38.225Z,4.50
2023-03-21T08:30:26.418Z,6.97
2023-03-21T08:33:13.542Z,5.90
2023-03-21T08:36:00.808Z,6.57
2023-03-21T08:38:48.495Z,5.87
2023-03-21T08:41:35.721Z,7.07
2023-03-21T08:44:22.119Z,5.03
2023-03-21T08:47:08.213Z,5.03
2023-03-21T08:49:53.400Z,5.17
2023-03-21T08:52:38.704Z,6.33
2023-03-21T08:55:23.893Z,5.40
2023-03-21T08:58:09.111Z,6.63
2023-03-21T09:00:54.226Z,6.00
2023-03-21T09:03:39.642Z,4.73
2023-03-21T09:06:27.019Z,5.07
2023-03-21T09:09:12.685Z,6.27
2023-03-21T09:11:58.738Z,5.37
2023-03-21T09:14:43.914Z,5.07
2023-03-21T09:17:29.704Z,4.70
2023-03-21T09:20:22.677Z,4.87
2023-03-21T09:23:08.151Z,3.90
2023-03-21T09:25:53.599Z,5.63
2023-03-21T09:28:39.262Z,6.23
2023-03-21T09:31:25.887Z,6.13
2023-03-21T09:34:11.160Z,3.93
2023-03-21T09:36:57.038Z,5.23
2023-03-21T09:39:43.619Z,4.20
2023-03-21T09:42:48.219Z,6.50
2023-03-21T09:45:43.716Z,4.73
2023-03-21T09:48:56.045Z,5.63
2023-03-21T09:51:49.277Z,3.17
2023-03-21T09:54:43.037Z,4.28
2023-03-21T09:57:40.023Z,4.93
2023-03-21T10:00:32.455Z,3.37
2023-03-21T10:03:29.041Z,2.87
2023-03-21T10:06:16.494Z,3.10
2023-03-21T10:09:24.459Z,3.30
2023-03-21T10:12:20.045Z,3.37
2023-03-21T10:15:06.128Z,5.30
2023-03-21T10:18:05.345Z,4.27
2023-03-21T10:20:51.900Z,2.67
2023-03-21T10:23:37.611Z,4.30
2023-03-21T10:26:28.112Z,5.53
2023-03-21T10:29:15.000Z,4.73
2023-03-21T10:32:00.722Z,4.87
2023-03-21T10:34:50.700Z,4.90
2023-03-21T10:37:36.419Z,3.87
2023-03-21T10:40:21.679Z,4.37
2023-03-21T10:43:35.300Z,3.10
2023-03-21T10:46:21.763Z,3.67
2023-03-21T10:49:08.236Z,2.87
2023-03-21T10:52:02.433Z,3.87
2023-03-21T10:54:49.382Z,3.03
2023-03-21T10:57:38.037Z,2.80
2023-03-21T11:00:29.128Z,3.53
2023-03-21T11:03:36.426Z,4.00
2023-03-21T11:06:21.817Z,3.80
2023-03-21T11:09:13.291Z,3.67
2023-03-21T11:12:10.041Z,5.37
2023-03-21T11:14:56.192Z,4.87
2023-03-21T11:17:41.918Z,2.97
2023-03-21T11:20:31.405Z,3.30
2023-03-21T11:23:20.442Z,12.53
2023-03-21T11:26:11.899Z,3.43
2023-03-21T11:28:58.133Z,2.57
2023-03-21T11:31:44.861Z,3.27
2023-03-21T11:34:57.795Z,3.60
2023-03-21T11:37:51.076Z,3.38
2023-03-21T11:40:39.548Z,6.13
2023-03-21T11:43:31.987Z,3.33
2023-03-21T11:46:23.939Z,3.60
2023-03-21T11:49:10.342Z,3.33
2023-03-21T11:51:58.920Z,2.80
2023-03-21T11:55:00.840Z,3.70
2023-03-21T11:58:05.315Z,3.43
2023-03-21T12:01:18.083Z,4.10
2023-03-21T12:04:31.822Z,5.47
2023-03-21T12:07:32.574Z,3.95
2023-03-21T12:10:33.420Z,2.23
2023-03-21T12:13:43.818Z,4.03
2023-03-21T12:16:44.054Z,3.20
2023-03-21T12:19:57.246Z,4.87
2023-03-21T12:23:01.050Z,2.87
2023-03-21T12:25:56.672Z,4.23
2023-03-21T12:29:24.229Z,2.97
2023-03-21T12:32:21.758Z,5.27
2023-03-21T12:35:33.583Z,4.20
2023-03-21T12:38:25.614Z,3.43
2023-03-21T12:41:25.481Z,4.17
2023-03-21T12:44:17.504Z,4.83
2023-03-21T12:47:08.886Z,3.67
2023-03-21T12:50:06.755Z,5.23
2023-03-21T12:53:11.458Z,2.37
2023-03-21T12:56:01.702Z,1.90
2023-03-21T12:59:08.648Z,3.90
2023-03-21T13:02:01.462Z,3.73
2023-03-21T13:05:18.110Z,4.47
2023-03-21T13:08:39.055Z,4.63
2023-03-21T13:11:27.802Z,5.20
2023-03-21T13:14:30.817Z,4.37
2023-03-21T13:17:27.325Z,8.90
2023-03-21T13:20:38.174Z,4.63
2023-03-21T13:23:25.997Z,6.00
2023-03-21T13:26:12.528Z,6.63
2023-03-21T13:28:59.009Z,5.70
2023-03-21T13:31:52.011Z,5.37
2023-03-21T13:34:40.212Z,10.80
2023-03-21T13:37:31.139Z,5.50
2023-03-21T13:40:37.697Z,4.97
2023-03-21T13:43:51.307Z,8.37
2023-03-21T13:46:53.685Z,5.70
2023-03-21T13:49:39.973Z,5.68
2023-03-21T13:52:27.975Z,6.60
2023-03-21T13:55:20.438Z,6.40
2023-03-21T13:58:40.677Z,5.03
2023-03-21T14:01:36.056Z,7.70
2023-03-21T14:04:31.983Z,4.80
2023-03-21T14:07:30.086Z,7.13
2023-03-21T14:10:28.048Z,7.13
2023-03-21T14:13:19.223Z,5.50
2023-03-21T14:16:14.174Z,6.10
2023-03-21T14:19:03.913Z,4.00
2023-03-21T14:21:53.467Z,4.60
2023-03-21T14:24:41.209Z,7.97
2023-03-21T14:27:31.056Z,7.27
2023-03-21T14:30:24.476Z,8.80
2023-03-21T14:33:15.880Z,10.63
2023-03-21T14:36:09.018Z,11.80
2023-03-21T14:41:55.836Z,10.23
2023-03-21T14:44:58.669Z,12.93
2023-03-21T14:48:00.019Z,11.63
2023-03-21T14:50:48.486Z,9.10
2023-03-21T14:53:39.944Z,12.37
2023-03-21T14:56:25.934Z,8.40
2023-03-21T14:59:15.874Z,9.83
2023-03-21T15:02:04.826Z,8.57
2023-03-21T15:04:53.313Z,9.60
2023-03-21T15:07:38.609Z,10.03
2023-03-21T15:10:26.270Z,9.87
2023-03-21T15:13:18.186Z,10.20
2023-03-21T15:16:04.523Z,11.17
2023-03-21T15:18:50.824Z,10.53
2023-03-21T15:21:41.993Z,14.73
2023-03-21T15:24:31.903Z,14.70
2023-03-21T15:27:19.598Z,15.43
2023-03-21T15:30:06.168Z,12.60
2023-03-21T15:32:53.695Z,15.80
2023-03-21T15:35:55.697Z,22.17
2023-03-21T15:38:45.191Z,22.20
2023-03-21T15:41:32.241Z,21.20
2023-03-21T15:44:21.757Z,21.00
2023-03-21T15:47:13.886Z,22.80
2023-03-21T15:50:02.472Z,25.43
2023-03-21T15:52:50.921Z,24.83
2023-03-21T15:55:48.091Z,23.13
2023-03-21T15:58:48.416Z,17.90
2023-03-21T16:01:38.969Z,23.43
2023-03-21T16:04:24.761Z,21.50
2023-03-21T16:07:17.312Z,19.05
2023-03-21T16:10:04.900Z,17.63
2023-03-21T16:12:50.334Z,20.13
2023-03-21T16:15:35.828Z,16.60
2023-03-21T16:18:21.276Z,20.60
2023-03-21T16:21:06.912Z,141.83
2023-03-21T16:23:52.911Z,165.77
2023-03-21T16:26:45.200Z,776.87
2023-03-21T16:29:30.477Z,811.37
2023-03-21T16:32:17.536Z,639.53
2023-03-21T16:35:02.929Z,574.47
2023-03-21T16:37:48.387Z,499.73
2023-03-21T16:40:37.332Z,479.20
2023-03-21T16:43:22.960Z,502.40
2023-03-21T16:46:27.013Z,496.70
2023-03-21T16:49:24.576Z,490.57
2023-03-21T16:52:12.016Z,495.60
2023-03-21T16:54:57.512Z,451.40
2023-03-21T16:57:43.336Z,471.87
2023-03-21T17:00:30.770Z,472.87
2023-03-21T17:03:19.149Z,434.73
2023-03-21T17:06:06.029Z,449.97
2023-03-21T17:08:52.937Z,489.00
2023-03-21T17:11:41.702Z,476.73
2023-03-21T17:14:27.234Z,483.33
2023-03-21T17:17:17.267Z,533.37
2023-03-21T17:20:16.225Z,539.43
2023-03-21T17:23:01.681Z,462.80
2023-03-21T17:25:47.001Z,459.10
2023-03-21T17:28:32.699Z,468.57
2023-03-21T17:31:22.955Z,482.17
2023-03-21T17:34:09.699Z,441.87
2023-03-21T17:36:55.281Z,545.60
2023-03-21T17:39:42.987Z,532.83
2023-03-21T17:42:28.155Z,542.27
2023-03-21T17:45:14.903Z,500.87
2023-03-21T17:48:00.409Z,490.87
2023-03-21T17:50:46.147Z,515.57
2023-03-21T17:53:31.521Z,510.43
2023-03-21T17:56:26.279Z,492.07
2023-03-21T17:59:13.925Z,477.80
2023-03-21T18:01:59.534Z,496.07
2023-03-21T18:04:45.007Z,487.37
2023-03-21T18:08:02.018Z,476.57
2023-03-21T18:10:35.814Z,454.87
2023-03-21T18:13:21.451Z,454.27
2023-03-21T18:16:08.327Z,431.93
2023-03-21T18:18:56.665Z,445.57
2023-03-21T18:21:45.860Z,422.90
2023-03-21T18:24:31.493Z,429.17
2023-03-21T18:27:17.512Z,415.93
2023-03-21T18:30:28.575Z,406.77
2023-03-21T18:33:12.292Z,391.83
2023-03-21T18:35:59.889Z,381.60
2023-03-21T18:38:46.075Z,372.27
2023-03-21T18:41:32.170Z,361.33
2023-03-21T18:44:21.295Z,340.80
2023-03-21T18:47:09.512Z,345.83
2023-03-21T18:50:13.032Z,345.53
2023-03-21T18:52:59.188Z,345.83
2023-03-21T18:55:46.782Z,338.43
2023-03-21T18:58:33.317Z,337.43
2023-03-21T19:01:18.767Z,329.03
2023-03-21T19:04:32.159Z,333.57
2023-03-21T19:07:10.533Z,334.40
2023-03-21T19:10:15.994Z,322.30
2023-03-21T19:13:02.115Z,321.87
2023-03-21T19:15:49.590Z,314.53
2023-03-21T19:18:54.910Z,303.97
2023-03-21T19:21:40.669Z,298.53
2023-03-21T19:24:28.564Z,310.03
2023-03-21T19:27:14.785Z,300.40
2023-03-21T19:30:13.869Z,295.53
2023-03-21T19:33:00.159Z,296.77
2023-03-21T19:35:46.546Z,278.27
2023-03-21T19:38:32.504Z,275.53
2023-03-21T19:41:20.232Z,286.27
2023-03-21T19:44:05.961Z,274.63
2023-03-21T19:46:51.388Z,269.10
2023-03-21T19:50:27.333Z,277.73
2023-03-21T19:52:46.170Z,259.87
2023-03-21T19:55:31.613Z,260.10
2023-03-21T19:58:21.330Z,262.27
2023-03-21T20:01:09.466Z,257.20
2023-03-21T20:03:55.406Z,253.13
2023-03-21T20:06:41.141Z,237.33
2023-03-21T20:12:33.213Z,244.70
2023-03-21T20:15:26.706Z,240.93
2023-03-21T20:18:14.296Z,239.53
2023-03-21T20:21:02.002Z,227.73
2023-03-21T20:23:51.054Z,227.20
2023-03-21T20:26:49.353Z,237.30
2023-03-21T20:30:35.244Z,223.30
2023-03-21T20:33:22.987Z,215.33
2023-03-21T20:36:38.304Z,214.03
2023-03-21T20:39:29.930Z,213.67
2023-03-21T20:42:15.712Z,217.87
2023-03-21T20:45:07.923Z,211.33
2023-03-21T20:47:55.575Z,207.02
2023-03-21T20:50:51.863Z,199.30
2023-03-21T20:53:50.193Z,205.47
2023-03-21T20:56:48.907Z,200.33
2023-03-21T20:59:41.830Z,187.65
2023-03-21T21:02:28.017Z,190.02
2023-03-21T21:05:38.577Z,196.90
2023-03-21T21:08:37.992Z,181.97
2023-03-21T21:12:05.244Z,197.17
2023-03-21T21:14:47.092Z,187.40
2023-03-21T21:18:05.356Z,175.67
2023-03-21T21:20:58.883Z,188.33
2023-03-21T21:23:45.066Z,178.70
2023-03-21T21:26:34.523Z,173.33
2023-03-21T21:29:27.470Z,167.33
2023-03-21T21:32:25.050Z,169.17
2023-03-21T21:35:17.446Z,153.90
2023-03-21T21:38:29.010Z,158.90
2023-03-21T21:41:24.234Z,161.37
2023-03-21T21:44:10.135Z,150.07
2023-03-21T21:46:55.470Z,149.83
2023-03-21T21:49:41.566Z,150.63
2023-03-21T21:52:27.005Z,146.23
2023-03-21T21:55:13.265Z,146.80
2023-03-21T21:57:59.340Z,145.63
2023-03-21T22:00:46.247Z,145.67
2023-03-21T22:03:41.100Z,144.07
2023-03-21T22:06:27.233Z,150.33
2023-03-21T22:09:13.987Z,142.20
2023-03-21T22:11:59.749Z,140.67
2023-03-21T22:14:45.349Z,140.27
2023-03-21T22:17:31.346Z,150.43
2023-03-21T22:20:19.489Z,133.97
2023-03-21T22:23:04.934Z,137.87
2023-03-21T22:25:51.784Z,139.90
2023-03-21T22:28:40.151Z,140.90
2023-03-21T22:31:26.460Z,130.97
2023-03-21T22:34:11.720Z,134.07
2023-03-21T22:36:57.690Z,136.07
2023-03-21T22:39:42.992Z,133.87
2023-03-21T22:42:28.316Z,130.13
2023-03-21T22:45:14.608Z,130.63
2023-03-21T22:48:00.450Z,127.93
2023-03-21T22:50:46.226Z,127.37
2023-03-21T22:53:31.812Z,123.17
2023-03-21T22:56:17.044Z,122.87
2023-03-21T22:59:02.302Z,126.60
2023-03-21T23:01:47.614Z,122.93
2023-03-21T23:04:32.878Z,125.30
2023-03-21T23:07:18.178Z,122.20
2023-03-21T23:10:05.162Z,122.93
2023-03-21T23:12:51.809Z,127.47
2023-03-21T23:15:38.643Z,119.90
2023-03-21T23:18:23.915Z,116.87
2023-03-21T23:21:13.406Z,119.27
2023-03-21T23:23:58.849Z,116.77
2023-03-21T23:26:44.070Z,112.17
2023-03-21T23:29:32.086Z,115.83
2023-03-21T23:32:17.866Z,114.30
2023-03-21T23:35:03.778Z,110.83
2023-03-21T23:37:52.645Z,110.30
2023-03-21T23:40:41.647Z,113.53
2023-03-21T23:43:28.252Z,113.17
2023-03-21T23:46:15.502Z,114.40
2023-03-21T23:49:01.041Z,105.37
2023-03-21T23:51:47.178Z,107.07
2023-03-21T23:54:32.318Z,100.90
2023-03-21T23:57:18.066Z,103.10
